sensor_id;sensor_type;location;lat;lon;timestamp;temperature;humidity
5055;DHT22;13829;48.990;8.346;2022-11-15T00:00:31;9.10;99.90
5055;DHT22;13829;48.990;8.346;2022-11-15T00:02:58;9.00;99.90
5055;DHT22;13829;48.990;8.346;2022-11-15T00:05:26;9.00;99.90
5055;DHT22;13829;48.990;8.346;2022-11-15T00:07:52;9.00;99.90
5055;DHT22;13829;48.990;8.346;2022-11-15T00:10:21;9.00;99.90
5055;DHT22;13829;48.990;8.346;2022-11-15T00:12:48;9.10;99.90
5055;DHT22;13829;48.990;8.346;2022-11-15T00:15:15;9.10;99.90
5055;DHT22;13829;48.990;8.346;2022-11-15T00:17:41;9.10;99.90
5055;DHT22;13829;48.990;8.346;2022-11-15T00:20:09;9.10;99.90
5055;DHT22;13829;48.990;8.346;2022-11-15T00:22:37;9.10;99.90
5055;DHT22;13829;48.990;8.346;2022-11-15T00:25:05;9.10;99.90
5055;DHT22;13829;48.990;8.346;2022-11-15T00:27:33;9.10;99.90
5055;DHT22;13829;48.990;8.346;2022-11-15T00:30:00;9.10;99.90
5055;DHT22;13829;48.990;8.346;2022-11-15T00:32:30;9.10;99.90
5055;DHT22;13829;48.990;8.346;2022-11-15T00:34:58;9.00;99.90
5055;DHT22;13829;48.990;8.346;2022-11-15T00:37:24;9.00;99.90
5055;DHT22;13829;48.990;8.346;2022-11-15T00:39:51;8.90;99.90
5055;DHT22;13829;48.990;8.346;2022-11-15T00:42:18;9.00;99.90
5055;DHT22;13829;48.990;8.346;2022-11-15T00:44:46;9.00;99.90
5055;DHT22;13829;48.990;8.346;2022-11-15T00:47:13;9.00;99.90
5055;DHT22;13829;48.990;8.346;2022-11-15T00:49:40;9.00;99.90
5055;DHT22;13829;48.990;8.346;2022-11-15T00:52:07;9.10;99.90
5055;DHT22;13829;48.990;8.346;2022-11-15T00:54:34;9.10;99.90
5055;DHT22;13829;48.990;8.346;2022-11-15T00:57:01;9.20;99.90
5055;DHT22;13829;48.990;8.346;2022-11-15T00:59:28;9.20;99.90
5055;DHT22;13829;48.990;8.346;2022-11-15T01:01:56;9.30;99.90
5055;DHT22;13829;48.990;8.346;2022-11-15T01:04:23;9.40;99.90
5055;DHT22;13829;48.990;8.346;2022-11-15T01:06:50;9.50;99.90
5055;DHT22;13829;48.990;8.346;2022-11-15T01:09:17;9.30;99.90
5055;DHT22;13829;48.990;8.346;2022-11-15T01:11:44;9.30;99.90
5055;DHT22;13829;48.990;8.346;2022-11-15T01:14:11;9.30;99.90
5055;DHT22;13829;48.990;8.346;2022-11-15T01:16:38;9.30;99.90
5055;DHT22;13829;48.990;8.346;2022-11-15T01:19:06;9.30;99.90
5055;DHT22;13829;48.990;8.346;2022-11-15T01:21:33;9.30;99.90
5055;DHT22;13829;48.990;8.346;2022-11-15T01:24:00;9.40;99.90
5055;DHT22;13829;48.990;8.346;2022-11-15T01:26:27;9.30;99.90
5055;DHT22;13829;48.990;8.346;2022-11-15T01:28:54;9.30;99.90
5055;DHT22;13829;48.990;8.346;2022-11-15T01:31:21;9.30;99.90
5055;DHT22;13829;48.990;8.346;2022-11-15T01:33:48;9.30;99.90
5055;DHT22;13829;48.990;8.346;2022-11-15T01:36:19;9.40;99.90
5055;DHT22;13829;48.990;8.346;2022-11-15T01:38:53;9.30;99.90
5055;DHT22;13829;48.990;8.346;2022-11-15T01:41:23;9.20;99.90
5055;DHT22;13829;48.990;8.346;2022-11-15T01:43:54;9.30;99.90
5055;DHT22;13829;48.990;8.346;2022-11-15T01:46:27;9.30;99.90
5055;DHT22;13829;48.990;8.346;2022-11-15T01:48:59;9.30;99.90
5055;DHT22;13829;48.990;8.346;2022-11-15T01:51:32;9.30;99.90
5055;DHT22;13829;48.990;8.346;2022-11-15T01:54:01;9.40;99.90
5055;DHT22;13829;48.990;8.346;2022-11-15T01:56:38;9.30;99.90
5055;DHT22;13829;48.990;8.346;2022-11-15T01:59:11;9.40;99.90
5055;DHT22;13829;48.990;8.346;2022-11-15T02:01:38;9.40;99.90
5055;DHT22;13829;48.990;8.346;2022-11-15T02:04:11;9.40;99.90
5055;DHT22;13829;48.990;8.346;2022-11-15T02:06:43;9.40;99.90
5055;DHT22;13829;48.990;8.346;2022-11-15T02:09:13;9.40;99.90
5055;DHT22;13829;48.990;8.346;2022-11-15T02:11:40;9.50;99.90
5055;DHT22;13829;48.990;8.346;2022-11-15T02:14:09;9.50;99.90
5055;DHT22;13829;48.990;8.346;2022-11-15T02:16:44;9.60;99.90
5055;DHT22;13829;48.990;8.346;2022-11-15T02:19:29;9.60;99.90
5055;DHT22;13829;48.990;8.346;2022-11-15T02:22:27;9.50;99.90
5055;DHT22;13829;48.990;8.346;2022-11-15T02:25:14;9.60;99.90
5055;DHT22;13829;48.990;8.346;2022-11-15T02:31:05;9.40;99.90
5055;DHT22;13829;48.990;8.346;2022-11-15T02:33:44;9.40;99.90
5055;DHT22;13829;48.990;8.346;2022-11-15T02:36:27;9.50;99.90
5055;DHT22;13829;48.990;8.346;2022-11-15T02:39:06;9.30;99.90
5055;DHT22;13829;48.990;8.346;2022-11-15T02:41:43;9.30;99.90
5055;DHT22;13829;48.990;8.346;2022-11-15T02:44:17;9.50;99.90
5055;DHT22;13829;48.990;8.346;2022-11-15T02:46:51;9.30;99.90
5055;DHT22;13829;48.990;8.346;2022-11-15T02:49:41;9.30;99.90
5055;DHT22;13829;48.990;8.346;2022-11-15T02:52:14;9.30;99.90
5055;DHT22;13829;48.990;8.346;2022-11-15T02:54:43;9.20;99.90
5055;DHT22;13829;48.990;8.346;2022-11-15T02:57:25;9.40;99.90
5055;DHT22;13829;48.990;8.346;2022-11-15T03:00:07;9.40;99.90
5055;DHT22;13829;48.990;8.346;2022-11-15T03:03:00;9.40;99.90
5055;DHT22;13829;48.990;8.346;2022-11-15T03:05:50;9.50;99.90
5055;DHT22;13829;48.990;8.346;2022-11-15T03:08:31;9.50;99.90
5055;DHT22;13829;48.990;8.346;2022-11-15T03:11:07;9.50;99.90
5055;DHT22;13829;48.990;8.346;2022-11-15T03:13:38;9.60;99.90
5055;DHT22;13829;48.990;8.346;2022-11-15T03:16:17;9.60;99.90
5055;DHT22;13829;48.990;8.346;2022-11-15T03:18:53;9.40;99.90
5055;DHT22;13829;48.990;8.346;2022-11-15T03:21:28;9.60;99.90
5055;DHT22;13829;48.990;8.346;2022-11-15T03:23:58;9.70;99.90
5055;DHT22;13829;48.990;8.346;2022-11-15T03:26:30;9.90;99.90
5055;DHT22;13829;48.990;8.346;2022-11-15T03:29:03;9.80;99.90
5055;DHT22;13829;48.990;8.346;2022-11-15T03:31:34;10.00;99.90
5055;DHT22;13829;48.990;8.346;2022-11-15T03:34:22;9.80;99.90
5055;DHT22;13829;48.990;8.346;2022-11-15T03:36:54;9.70;99.90
5055;DHT22;13829;48.990;8.346;2022-11-15T03:39:22;9.70;99.90
5055;DHT22;13829;48.990;8.346;2022-11-15T03:41:56;9.50;99.90
5055;DHT22;13829;48.990;8.346;2022-11-15T03:44:36;9.60;99.90
5055;DHT22;13829;48.990;8.346;2022-11-15T03:47:12;9.70;99.90
5055;DHT22;13829;48.990;8.346;2022-11-15T03:49:49;9.60;99.90
5055;DHT22;13829;48.990;8.346;2022-11-15T03:52:19;9.70;99.90
5055;DHT22;13829;48.990;8.346;2022-11-15T03:54:52;9.70;99.90
5055;DHT22;13829;48.990;8.346;2022-11-15T03:57:20;9.70;99.90
5055;DHT22;13829;48.990;8.346;2022-11-15T03:59:47;9.70;99.90
5055;DHT22;13829;48.990;8.346;2022-11-15T04:02:15;9.70;99.90
5055;DHT22;13829;48.990;8.346;2022-11-15T04:04:42;9.60;99.90
5055;DHT22;13829;48.990;8.346;2022-11-15T04:07:10;9.70;99.90
5055;DHT22;13829;48.990;8.346;2022-11-15T04:09:37;9.70;99.90
5055;DHT22;13829;48.990;8.346;2022-11-15T04:12:25;9.70;99.90
5055;DHT22;13829;48.990;8.346;2022-11-15T04:14:57;9.70;99.90
5055;DHT22;13829;48.990;8.346;2022-11-15T04:17:37;9.70;99.90
5055;DHT22;13829;48.990;8.346;2022-11-15T04:20:08;9.70;99.90
5055;DHT22;13829;48.990;8.346;2022-11-15T04:22:57;9.80;99.90
5055;DHT22;13829;48.990;8.346;2022-11-15T04:25:44;9.80;99.90
5055;DHT22;13829;48.990;8.346;2022-11-15T04:28:12;9.80;99.90
5055;DHT22;13829;48.990;8.346;2022-11-15T04:30:39;9.70;99.90
5055;DHT22;13829;48.990;8.346;2022-11-15T04:33:06;9.80;99.90
5055;DHT22;13829;48.990;8.346;2022-11-15T04:35:33;9.80;99.90
5055;DHT22;13829;48.990;8.346;2022-11-15T04:38:04;10.00;99.90
5055;DHT22;13829;48.990;8.346;2022-11-15T04:40:32;10.00;99.90
5055;DHT22;13829;48.990;8.346;2022-11-15T04:43:00;10.00;99.90
5055;DHT22;13829;48.990;8.346;2022-11-15T04:45:27;10.00;99.90
5055;DHT22;13829;48.990;8.346;2022-11-15T04:47:54;9.90;99.90
5055;DHT22;13829;48.990;8.346;2022-11-15T04:50:21;9.90;99.90
5055;DHT22;13829;48.990;8.346;2022-11-15T04:52:51;9.90;99.90
5055;DHT22;13829;48.990;8.346;2022-11-15T04:55:20;9.90;99.90
5055;DHT22;13829;48.990;8.346;2022-11-15T04:57:48;9.90;99.90
5055;DHT22;13829;48.990;8.346;2022-11-15T05:00:23;9.90;99.90
5055;DHT22;13829;48.990;8.346;2022-11-15T05:02:51;9.90;99.90
5055;DHT22;13829;48.990;8.346;2022-11-15T05:05:35;9.90;99.90
5055;DHT22;13829;48.990;8.346;2022-11-15T05:08:03;9.90;99.90
5055;DHT22;13829;48.990;8.346;2022-11-15T05:10:31;9.90;99.90
5055;DHT22;13829;48.990;8.346;2022-11-15T05:12:58;9.80;99.90
5055;DHT22;13829;48.990;8.346;2022-11-15T05:15:25;9.90;99.90
5055;DHT22;13829;48.990;8.346;2022-11-15T05:17:57;9.90;99.90
5055;DHT22;13829;48.990;8.346;2022-11-15T05:20:25;9.90;99.90
5055;DHT22;13829;48.990;8.346;2022-11-15T05:22:53;10.00;99.90
5055;DHT22;13829;48.990;8.346;2022-11-15T05:25:20;10.10;99.90
5055;DHT22;13829;48.990;8.346;2022-11-15T05:27:49;10.10;99.90
5055;DHT22;13829;48.990;8.346;2022-11-15T05:30:16;10.10;99.90
5055;DHT22;13829;48.990;8.346;2022-11-15T05:32:43;10.00;99.90
5055;DHT22;13829;48.990;8.346;2022-11-15T05:35:13;10.00;99.90
5055;DHT22;13829;48.990;8.346;2022-11-15T05:37:46;10.00;99.90
5055;DHT22;13829;48.990;8.346;2022-11-15T05:40:14;9.90;99.90
5055;DHT22;13829;48.990;8.346;2022-11-15T05:42:41;9.90;99.90
5055;DHT22;13829;48.990;8.346;2022-11-15T05:45:11;9.90;99.90
5055;DHT22;13829;48.990;8.346;2022-11-15T05:47:39;9.90;99.90
5055;DHT22;13829;48.990;8.346;2022-11-15T05:50:08;9.90;99.90
5055;DHT22;13829;48.990;8.346;2022-11-15T05:52:39;9.80;99.90
5055;DHT22;13829;48.990;8.346;2022-11-15T05:55:07;9.80;99.90
5055;DHT22;13829;48.990;8.346;2022-11-15T05:57:36;9.80;99.90
5055;DHT22;13829;48.990;8.346;2022-11-15T06:00:04;9.80;99.90
5055;DHT22;13829;48.990;8.346;2022-11-15T06:02:33;9.80;99.90
5055;DHT22;13829;48.990;8.346;2022-11-15T06:05:00;9.70;99.90
5055;DHT22;13829;48.990;8.346;2022-11-15T06:07:29;9.60;99.90
5055;DHT22;13829;48.990;8.346;2022-11-15T06:09:55;9.60;99.90
5055;DHT22;13829;48.990;8.346;2022-11-15T06:12:22;9.60;99.90
5055;DHT22;13829;48.990;8.346;2022-11-15T06:14:49;9.60;99.90
5055;DHT22;13829;48.990;8.346;2022-11-15T06:17:16;9.50;99.90
5055;DHT22;13829;48.990;8.346;2022-11-15T06:19:44;9.50;99.90
5055;DHT22;13829;48.990;8.346;2022-11-15T06:22:11;9.50;99.90
5055;DHT22;13829;48.990;8.346;2022-11-15T06:24:38;9.50;99.90
5055;DHT22;13829;48.990;8.346;2022-11-15T06:27:05;9.50;99.90
5055;DHT22;13829;48.990;8.346;2022-11-15T06:29:32;9.50;99.90
5055;DHT22;13829;48.990;8.346;2022-11-15T06:31:59;9.50;99.90
5055;DHT22;13829;48.990;8.346;2022-11-15T06:34:26;9.50;99.90
5055;DHT22;13829;48.990;8.346;2022-11-15T06:36:54;9.50;99.90
5055;DHT22;13829;48.990;8.346;2022-11-15T06:39:21;9.50;99.90
5055;DHT22;13829;48.990;8.346;2022-11-15T06:41:48;9.40;99.90
5055;DHT22;13829;48.990;8.346;2022-11-15T06:44:15;9.80;99.90
5055;DHT22;13829;48.990;8.346;2022-11-15T06:46:41;9.70;99.90
5055;DHT22;13829;48.990;8.346;2022-11-15T06:49:08;9.70;99.90
5055;DHT22;13829;48.990;8.346;2022-11-15T06:51:35;9.70;99.90
5055;DHT22;13829;48.990;8.346;2022-11-15T06:54:04;9.70;99.90
5055;DHT22;13829;48.990;8.346;2022-11-15T06:56:31;9.80;99.90
5055;DHT22;13829;48.990;8.346;2022-11-15T06:58:57;9.80;99.90
5055;DHT22;13829;48.990;8.346;2022-11-15T07:01:24;9.90;99.90
5055;DHT22;13829;48.990;8.346;2022-11-15T07:03:51;9.90;99.90
5055;DHT22;13829;48.990;8.346;2022-11-15T07:06:18;9.90;99.90
5055;DHT22;13829;48.990;8.346;2022-11-15T07:08:45;9.90;99.90
5055;DHT22;13829;48.990;8.346;2022-11-15T07:11:13;9.90;99.90
5055;DHT22;13829;48.990;8.346;2022-11-15T07:13:40;9.90;99.90
5055;DHT22;13829;48.990;8.346;2022-11-15T07:16:09;9.90;99.90
5055;DHT22;13829;48.990;8.346;2022-11-15T07:18:38;10.00;99.90
5055;DHT22;13829;48.990;8.346;2022-11-15T07:21:07;10.00;99.90
5055;DHT22;13829;48.990;8.346;2022-11-15T07:23:36;10.00;99.90
5055;DHT22;13829;48.990;8.346;2022-11-15T07:26:04;10.10;99.90
5055;DHT22;13829;48.990;8.346;2022-11-15T07:28:33;10.20;99.90
5055;DHT22;13829;48.990;8.346;2022-11-15T07:31:02;10.40;99.90
5055;DHT22;13829;48.990;8.346;2022-11-15T07:33:29;10.40;99.90
5055;DHT22;13829;48.990;8.346;2022-11-15T07:35:59;10.50;99.90
5055;DHT22;13829;48.990;8.346;2022-11-15T07:38:27;10.50;99.90
5055;DHT22;13829;48.990;8.346;2022-11-15T07:40:59;10.50;99.90
5055;DHT22;13829;48.990;8.346;2022-11-15T07:43:29;10.50;99.90
5055;DHT22;13829;48.990;8.346;2022-11-15T07:46:04;10.50;99.90
5055;DHT22;13829;48.990;8.346;2022-11-15T07:48:34;10.50;99.90
5055;DHT22;13829;48.990;8.346;2022-11-15T07:51:02;10.50;99.90
5055;DHT22;13829;48.990;8.346;2022-11-15T07:53:29;10.40;99.90
5055;DHT22;13829;48.990;8.346;2022-11-15T07:55:56;10.40;99.90
5055;DHT22;13829;48.990;8.346;2022-11-15T07:58:23;10.50;99.90
5055;DHT22;13829;48.990;8.346;2022-11-15T08:00:50;10.50;99.90
5055;DHT22;13829;48.990;8.346;2022-11-15T08:03:18;10.60;99.90
5055;DHT22;13829;48.990;8.346;2022-11-15T08:05:50;10.60;99.90
5055;DHT22;13829;48.990;8.346;2022-11-15T08:08:18;10.70;99.90
5055;DHT22;13829;48.990;8.346;2022-11-15T08:10:45;10.70;99.90
5055;DHT22;13829;48.990;8.346;2022-11-15T08:13:12;10.70;99.90
5055;DHT22;13829;48.990;8.346;2022-11-15T08:15:40;10.70;99.90
5055;DHT22;13829;48.990;8.346;2022-11-15T08:18:14;10.70;99.90
5055;DHT22;13829;48.990;8.346;2022-11-15T08:20:43;10.70;99.90
5055;DHT22;13829;48.990;8.346;2022-11-15T08:23:11;10.80;99.90
5055;DHT22;13829;48.990;8.346;2022-11-15T08:25:39;11.00;99.90
5055;DHT22;13829;48.990;8.346;2022-11-15T08:28:07;11.10;99.90
5055;DHT22;13829;48.990;8.346;2022-11-15T08:30:38;11.30;99.90
5055;DHT22;13829;48.990;8.346;2022-11-15T08:33:11;11.40;99.90
5055;DHT22;13829;48.990;8.346;2022-11-15T08:35:39;11.60;99.90
5055;DHT22;13829;48.990;8.346;2022-11-15T08:38:07;11.70;99.90
5055;DHT22;13829;48.990;8.346;2022-11-15T08:40:35;11.80;99.90
5055;DHT22;13829;48.990;8.346;2022-11-15T08:43:03;11.90;99.90
5055;DHT22;13829;48.990;8.346;2022-11-15T08:45:30;12.10;99.90
5055;DHT22;13829;48.990;8.346;2022-11-15T08:47:58;12.20;99.90
5055;DHT22;13829;48.990;8.346;2022-11-15T08:50:27;12.30;99.90
5055;DHT22;13829;48.990;8.346;2022-11-15T08:52:54;12.20;99.90
5055;DHT22;13829;48.990;8.346;2022-11-15T08:55:22;12.30;99.90
5055;DHT22;13829;48.990;8.346;2022-11-15T08:57:49;12.30;99.90
5055;DHT22;13829;48.990;8.346;2022-11-15T09:00:17;12.20;99.90
5055;DHT22;13829;48.990;8.346;2022-11-15T09:02:45;12.20;99.90
5055;DHT22;13829;48.990;8.346;2022-11-15T09:05:12;12.30;99.90
5055;DHT22;13829;48.990;8.346;2022-11-15T09:07:40;12.30;99.90
5055;DHT22;13829;48.990;8.346;2022-11-15T09:10:08;12.40;99.90
5055;DHT22;13829;48.990;8.346;2022-11-15T09:12:37;12.40;99.90
5055;DHT22;13829;48.990;8.346;2022-11-15T09:15:05;12.50;99.90
5055;DHT22;13829;48.990;8.346;2022-11-15T09:17:33;12.50;99.90
5055;DHT22;13829;48.990;8.346;2022-11-15T09:19:59;12.50;99.90
5055;DHT22;13829;48.990;8.346;2022-11-15T09:22:27;12.40;99.90
5055;DHT22;13829;48.990;8.346;2022-11-15T09:24:54;12.40;99.90
5055;DHT22;13829;48.990;8.346;2022-11-15T09:27:20;12.40;99.90
5055;DHT22;13829;48.990;8.346;2022-11-15T09:29:49;12.50;99.90
5055;DHT22;13829;48.990;8.346;2022-11-15T09:32:16;12.50;99.90
5055;DHT22;13829;48.990;8.346;2022-11-15T09:34:42;12.60;99.90
5055;DHT22;13829;48.990;8.346;2022-11-15T09:37:09;12.70;99.90
5055;DHT22;13829;48.990;8.346;2022-11-15T09:39:37;12.70;99.90
5055;DHT22;13829;48.990;8.346;2022-11-15T09:42:22;12.80;99.90
5055;DHT22;13829;48.990;8.346;2022-11-15T09:45:06;12.90;99.90
5055;DHT22;13829;48.990;8.346;2022-11-15T09:47:56;13.00;99.90
5055;DHT22;13829;48.990;8.346;2022-11-15T09:50:39;13.00;99.90
5055;DHT22;13829;48.990;8.346;2022-11-15T09:53:31;12.90;99.90
5055;DHT22;13829;48.990;8.346;2022-11-15T09:56:17;13.00;99.90
5055;DHT22;13829;48.990;8.346;2022-11-15T09:58:54;13.00;99.90
5055;DHT22;13829;48.990;8.346;2022-11-15T10:01:38;13.00;99.90
5055;DHT22;13829;48.990;8.346;2022-11-15T10:04:11;13.00;99.90
5055;DHT22;13829;48.990;8.346;2022-11-15T10:06:44;13.00;99.90
5055;DHT22;13829;48.990;8.346;2022-11-15T10:09:22;13.00;99.90
5055;DHT22;13829;48.990;8.346;2022-11-15T10:11:54;12.90;99.90
5055;DHT22;13829;48.990;8.346;2022-11-15T10:14:23;12.90;99.90
5055;DHT22;13829;48.990;8.346;2022-11-15T10:17:27;12.90;99.90
5055;DHT22;13829;48.990;8.346;2022-11-15T10:20:19;12.90;99.90
5055;DHT22;13829;48.990;8.346;2022-11-15T10:22:51;13.00;99.90
5055;DHT22;13829;48.990;8.346;2022-11-15T10:25:22;12.90;99.90
5055;DHT22;13829;48.990;8.346;2022-11-15T10:27:54;12.90;99.90
5055;DHT22;13829;48.990;8.346;2022-11-15T10:30:29;12.90;99.90
5055;DHT22;13829;48.990;8.346;2022-11-15T10:33:08;13.00;99.90
5055;DHT22;13829;48.990;8.346;2022-11-15T10:35:40;13.00;99.90
5055;DHT22;13829;48.990;8.346;2022-11-15T10:38:09;13.00;99.90
5055;DHT22;13829;48.990;8.346;2022-11-15T10:40:39;13.10;99.90
5055;DHT22;13829;48.990;8.346;2022-11-15T10:43:15;13.10;99.90
5055;DHT22;13829;48.990;8.346;2022-11-15T10:45:44;13.10;99.90
5055;DHT22;13829;48.990;8.346;2022-11-15T10:48:28;13.20;99.90
5055;DHT22;13829;48.990;8.346;2022-11-15T10:50:55;13.20;99.90
5055;DHT22;13829;48.990;8.346;2022-11-15T10:53:32;13.30;99.90
5055;DHT22;13829;48.990;8.346;2022-11-15T10:56:11;13.40;99.90
5055;DHT22;13829;48.990;8.346;2022-11-15T10:58:42;13.60;99.90
5055;DHT22;13829;48.990;8.346;2022-11-15T11:01:14;13.70;99.90
5055;DHT22;13829;48.990;8.346;2022-11-15T11:03:44;13.80;99.90
5055;DHT22;13829;48.990;8.346;2022-11-15T11:06:24;13.80;99.90
5055;DHT22;13829;48.990;8.346;2022-11-15T11:08:56;13.90;99.90
5055;DHT22;13829;48.990;8.346;2022-11-15T11:11:24;14.00;99.90
5055;DHT22;13829;48.990;8.346;2022-11-15T11:14:12;14.10;99.90
5055;DHT22;13829;48.990;8.346;2022-11-15T11:16:49;14.10;99.90
5055;DHT22;13829;48.990;8.346;2022-11-15T11:22:23;14.10;99.90
5055;DHT22;13829;48.990;8.346;2022-11-15T11:25:07;14.10;99.90
5055;DHT22;13829;48.990;8.346;2022-11-15T11:28:01;14.00;99.90
5055;DHT22;13829;48.990;8.346;2022-11-15T11:30:45;14.00;99.90
5055;DHT22;13829;48.990;8.346;2022-11-15T11:33:23;14.00;99.90
5055;DHT22;13829;48.990;8.346;2022-11-15T11:36:07;14.10;99.90
5055;DHT22;13829;48.990;8.346;2022-11-15T11:38:57;14.20;99.90
5055;DHT22;13829;48.990;8.346;2022-11-15T11:41:55;14.20;99.90
5055;DHT22;13829;48.990;8.346;2022-11-15T11:44:34;14.20;99.90
5055;DHT22;13829;48.990;8.346;2022-11-15T11:47:21;14.30;99.90
5055;DHT22;13829;48.990;8.346;2022-11-15T11:49:51;14.30;99.90
5055;DHT22;13829;48.990;8.346;2022-11-15T11:52:25;14.30;99.90
5055;DHT22;13829;48.990;8.346;2022-11-15T11:55:03;14.30;99.90
5055;DHT22;13829;48.990;8.346;2022-11-15T11:57:44;14.30;99.90
5055;DHT22;13829;48.990;8.346;2022-11-15T12:00:20;14.30;99.90
5055;DHT22;13829;48.990;8.346;2022-11-15T12:02:59;14.30;99.90
5055;DHT22;13829;48.990;8.346;2022-11-15T12:05:36;14.20;99.90
5055;DHT22;13829;48.990;8.346;2022-11-15T12:08:20;14.20;99.90
5055;DHT22;13829;48.990;8.346;2022-11-15T12:11:00;14.20;99.90
5055;DHT22;13829;48.990;8.346;2022-11-15T12:13:34;14.30;99.90
5055;DHT22;13829;48.990;8.346;2022-11-15T12:16:08;14.30;99.90
5055;DHT22;13829;48.990;8.346;2022-11-15T12:18:40;14.30;99.90
5055;DHT22;13829;48.990;8.346;2022-11-15T12:21:15;14.40;99.90
5055;DHT22;13829;48.990;8.346;2022-11-15T12:23:53;14.40;99.90
5055;DHT22;13829;48.990;8.346;2022-11-15T12:26:32;14.40;99.90
5055;DHT22;13829;48.990;8.346;2022-11-15T12:29:10;14.40;99.90
5055;DHT22;13829;48.990;8.346;2022-11-15T12:31:44;14.40;99.90
5055;DHT22;13829;48.990;8.346;2022-11-15T12:34:35;14.50;99.90
5055;DHT22;13829;48.990;8.346;2022-11-15T12:37:32;14.40;99.90
5055;DHT22;13829;48.990;8.346;2022-11-15T12:40:32;14.40;99.90
5055;DHT22;13829;48.990;8.346;2022-11-15T12:46:05;14.30;99.90
5055;DHT22;13829;48.990;8.346;2022-11-15T12:48:49;14.30;99.90
5055;DHT22;13829;48.990;8.346;2022-11-15T12:51:22;14.40;99.90
5055;DHT22;13829;48.990;8.346;2022-11-15T12:54:53;14.30;99.90
5055;DHT22;13829;48.990;8.346;2022-11-15T12:57:41;14.20;99.90
5055;DHT22;13829;48.990;8.346;2022-11-15T13:03:24;14.20;99.90
5055;DHT22;13829;48.990;8.346;2022-11-15T13:06:06;14.20;99.90
5055;DHT22;13829;48.990;8.346;2022-11-15T13:08:41;14.20;99.90
5055;DHT22;13829;48.990;8.346;2022-11-15T13:11:46;14.20;99.90
5055;DHT22;13829;48.990;8.346;2022-11-15T13:14:48;14.30;99.90
5055;DHT22;13829;48.990;8.346;2022-11-15T13:17:29;14.20;99.90
5055;DHT22;13829;48.990;8.346;2022-11-15T13:20:18;14.20;99.90
5055;DHT22;13829;48.990;8.346;2022-11-15T13:22:50;14.20;99.90
5055;DHT22;13829;48.990;8.346;2022-11-15T13:25:40;14.20;99.90
5055;DHT22;13829;48.990;8.346;2022-11-15T13:28:26;14.30;99.90
5055;DHT22;13829;48.990;8.346;2022-11-15T13:30:59;14.10;99.90
5055;DHT22;13829;48.990;8.346;2022-11-15T13:33:32;14.20;99.90
5055;DHT22;13829;48.990;8.346;2022-11-15T13:36:03;14.20;99.90
5055;DHT22;13829;48.990;8.346;2022-11-15T13:38:34;14.10;99.90
5055;DHT22;13829;48.990;8.346;2022-11-15T13:41:16;14.20;99.90
5055;DHT22;13829;48.990;8.346;2022-11-15T13:43:48;14.20;99.90
5055;DHT22;13829;48.990;8.346;2022-11-15T13:46:17;14.20;99.90
5055;DHT22;13829;48.990;8.346;2022-11-15T13:48:50;14.20;99.90
5055;DHT22;13829;48.990;8.346;2022-11-15T13:51:22;14.20;99.90
5055;DHT22;13829;48.990;8.346;2022-11-15T13:53:58;14.20;99.90
5055;DHT22;13829;48.990;8.346;2022-11-15T13:56:29;14.30;99.90
5055;DHT22;13829;48.990;8.346;2022-11-15T13:59:01;14.20;99.90
5055;DHT22;13829;48.990;8.346;2022-11-15T14:01:35;14.20;99.90
5055;DHT22;13829;48.990;8.346;2022-11-15T14:04:03;14.20;99.90
5055;DHT22;13829;48.990;8.346;2022-11-15T14:06:31;14.10;99.90
5055;DHT22;13829;48.990;8.346;2022-11-15T14:09:14;14.10;99.90
5055;DHT22;13829;48.990;8.346;2022-11-15T14:11:52;14.10;99.90
5055;DHT22;13829;48.990;8.346;2022-11-15T14:14:23;14.10;99.90
5055;DHT22;13829;48.990;8.346;2022-11-15T14:16:52;14.10;99.90
5055;DHT22;13829;48.990;8.346;2022-11-15T14:19:38;14.00;99.90
5055;DHT22;13829;48.990;8.346;2022-11-15T14:22:24;14.00;99.90
5055;DHT22;13829;48.990;8.346;2022-11-15T14:25:14;14.00;99.90
5055;DHT22;13829;48.990;8.346;2022-11-15T14:27:44;14.10;99.90
5055;DHT22;13829;48.990;8.346;2022-11-15T14:30:33;14.10;99.90
5055;DHT22;13829;48.990;8.346;2022-11-15T14:33:00;14.10;99.90
5055;DHT22;13829;48.990;8.346;2022-11-15T14:35:28;14.10;99.90
5055;DHT22;13829;48.990;8.346;2022-11-15T14:37:55;14.10;99.90
5055;DHT22;13829;48.990;8.346;2022-11-15T14:40:22;14.10;99.90
5055;DHT22;13829;48.990;8.346;2022-11-15T14:42:49;14.10;99.90
5055;DHT22;13829;48.990;8.346;2022-11-15T14:45:19;14.00;99.90
5055;DHT22;13829;48.990;8.346;2022-11-15T14:47:48;14.00;99.90
5055;DHT22;13829;48.990;8.346;2022-11-15T14:50:17;14.00;99.90
5055;DHT22;13829;48.990;8.346;2022-11-15T14:52:45;14.00;99.90
5055;DHT22;13829;48.990;8.346;2022-11-15T14:55:17;13.90;99.90
5055;DHT22;13829;48.990;8.346;2022-11-15T14:57:47;13.90;99.90
5055;DHT22;13829;48.990;8.346;2022-11-15T15:00:15;13.90;99.90
5055;DHT22;13829;48.990;8.346;2022-11-15T15:02:44;13.90;99.90
5055;DHT22;13829;48.990;8.346;2022-11-15T15:05:18;13.80;99.90
5055;DHT22;13829;48.990;8.346;2022-11-15T15:07:47;13.80;99.90
5055;DHT22;13829;48.990;8.346;2022-11-15T15:10:15;13.80;99.90
5055;DHT22;13829;48.990;8.346;2022-11-15T15:12:43;13.80;99.90
5055;DHT22;13829;48.990;8.346;2022-11-15T15:15:13;13.80;99.90
5055;DHT22;13829;48.990;8.346;2022-11-15T15:17:42;13.70;99.90
5055;DHT22;13829;48.990;8.346;2022-11-15T15:20:09;13.70;99.90
5055;DHT22;13829;48.990;8.346;2022-11-15T15:22:39;13.70;99.90
5055;DHT22;13829;48.990;8.346;2022-11-15T15:25:21;13.70;99.90
5055;DHT22;13829;48.990;8.346;2022-11-15T15:27:49;13.60;99.90
5055;DHT22;13829;48.990;8.346;2022-11-15T15:30:17;13.60;99.90
5055;DHT22;13829;48.990;8.346;2022-11-15T15:32:44;13.60;99.90
5055;DHT22;13829;48.990;8.346;2022-11-15T15:35:12;13.50;99.90
5055;DHT22;13829;48.990;8.346;2022-11-15T15:37:41;13.40;99.90
5055;DHT22;13829;48.990;8.346;2022-11-15T15:40:13;13.30;99.90
5055;DHT22;13829;48.990;8.346;2022-11-15T15:42:42;13.30;99.90
5055;DHT22;13829;48.990;8.346;2022-11-15T15:45:10;13.20;99.90
5055;DHT22;13829;48.990;8.346;2022-11-15T15:47:38;13.20;99.90
5055;DHT22;13829;48.990;8.346;2022-11-15T15:50:17;13.20;99.90
5055;DHT22;13829;48.990;8.346;2022-11-15T15:52:49;13.10;99.90
5055;DHT22;13829;48.990;8.346;2022-11-15T15:55:18;13.10;99.90
5055;DHT22;13829;48.990;8.346;2022-11-15T15:57:45;13.00;99.90
5055;DHT22;13829;48.990;8.346;2022-11-15T16:00:13;13.00;99.90
5055;DHT22;13829;48.990;8.346;2022-11-15T16:02:41;13.00;99.90
5055;DHT22;13829;48.990;8.346;2022-11-15T16:05:08;13.00;99.90
5055;DHT22;13829;48.990;8.346;2022-11-15T16:07:36;13.00;99.90
5055;DHT22;13829;48.990;8.346;2022-11-15T16:10:17;13.00;99.90
5055;DHT22;13829;48.990;8.346;2022-11-15T16:12:46;13.00;99.90
5055;DHT22;13829;48.990;8.346;2022-11-15T16:15:14;12.90;99.90
5055;DHT22;13829;48.990;8.346;2022-11-15T16:17:48;12.90;99.90
5055;DHT22;13829;48.990;8.346;2022-11-15T16:20:35;12.90;99.90
5055;DHT22;13829;48.990;8.346;2022-11-15T16:23:05;12.90;99.90
5055;DHT22;13829;48.990;8.346;2022-11-15T16:25:38;12.80;99.90
5055;DHT22;13829;48.990;8.346;2022-11-15T16:28:16;12.80;99.90
5055;DHT22;13829;48.990;8.346;2022-11-15T16:30:45;12.80;99.90
5055;DHT22;13829;48.990;8.346;2022-11-15T16:33:12;12.70;99.90
5055;DHT22;13829;48.990;8.346;2022-11-15T16:35:39;12.70;99.90
5055;DHT22;13829;48.990;8.346;2022-11-15T16:38:08;12.70;99.90